createdAt,value
2018-08-16T00:01:37.955Z,4.97
2018-08-16T00:04:06.803Z,4.53
2018-08-16T00:06:35.434Z,4.80
2018-08-16T00:09:05.754Z,5.60
2018-08-16T00:11:34.645Z,5.60
2018-08-16T00:14:03.533Z,6.93
2018-08-16T00:16:32.200Z,6.07
2018-08-16T00:19:00.719Z,5.63
2018-08-16T00:21:29.337Z,5.97
2018-08-16T00:23:57.937Z,5.73
2018-08-16T00:26:26.442Z,5.40
2018-08-16T00:28:55.037Z,5.57
2018-08-16T00:31:23.616Z,5.40
2018-08-16T00:33:52.507Z,5.63
2018-08-16T00:36:21.090Z,6.00
2018-08-16T00:38:49.680Z,5.70
2018-08-16T00:41:18.220Z,5.47
2018-08-16T00:43:46.658Z,5.80
2018-08-16T00:46:15.444Z,6.17
2018-08-16T00:48:43.932Z,6.77
2018-08-16T00:51:12.489Z,6.80
2018-08-16T00:53:41.001Z,5.83
2018-08-16T00:56:09.472Z,6.33
2018-08-16T00:58:37.920Z,6.77
2018-08-16T01:01:06.477Z,7.00
2018-08-16T01:03:35.075Z,6.77
2018-08-16T01:06:03.604Z,7.77
2018-08-16T01:08:32.134Z,6.73
2018-08-16T01:11:00.679Z,6.20
2018-08-16T01:13:29.193Z,6.50
2018-08-16T01:15:57.690Z,6.17
2018-08-16T01:18:26.180Z,6.27
2018-08-16T01:20:54.671Z,5.70
2018-08-16T01:23:23.199Z,6.93
2018-08-16T01:25:51.755Z,6.27
2018-08-16T01:28:20.244Z,6.60
2018-08-16T01:30:48.774Z,6.03
2018-08-16T01:33:17.657Z,6.60
2018-08-16T01:35:46.184Z,6.50
2018-08-16T01:38:14.736Z,7.03
2018-08-16T01:40:43.231Z,6.60
2018-08-16T01:43:11.746Z,7.20
2018-08-16T01:45:40.252Z,6.53
2018-08-16T01:48:09.448Z,6.60
2018-08-16T01:50:37.972Z,6.60
2018-08-16T01:53:06.597Z,7.37
2018-08-16T01:55:35.146Z,7.90
2018-08-16T01:58:03.701Z,7.80
2018-08-16T02:00:32.207Z,7.67
2018-08-16T02:03:00.663Z,7.80
2018-08-16T02:05:29.138Z,7.30
2018-08-16T02:07:57.579Z,7.57
2018-08-16T02:10:26.065Z,8.20
2018-08-16T02:12:54.592Z,7.93
2018-08-16T02:15:23.142Z,7.97
2018-08-16T02:17:51.632Z,9.60
2018-08-16T02:20:20.088Z,8.67
2018-08-16T02:22:48.584Z,8.57
2018-08-16T02:25:17.110Z,9.40
2018-08-16T02:27:45.581Z,8.53
2018-08-16T02:30:14.123Z,9.10
2018-08-16T02:32:42.676Z,9.10
2018-08-16T02:35:11.182Z,9.20
2018-08-16T02:37:39.679Z,9.00
2018-08-16T02:40:08.569Z,9.80
2018-08-16T02:42:37.016Z,9.27
2018-08-16T02:45:05.581Z,9.00
2018-08-16T02:47:34.059Z,9.10
2018-08-16T02:50:02.519Z,9.47
2018-08-16T02:52:31.013Z,9.90
2018-08-16T02:54:59.503Z,10.90
2018-08-16T02:57:27.990Z,10.53
2018-08-16T02:59:56.456Z,10.40
2018-08-16T03:02:24.967Z,10.70
2018-08-16T03:04:53.439Z,12.23
2018-08-16T03:07:21.948Z,12.63
2018-08-16T03:09:50.417Z,12.93
2018-08-16T03:12:19.060Z,13.27
2018-08-16T03:14:47.533Z,12.37
2018-08-16T03:17:16.030Z,12.70
2018-08-16T03:19:44.523Z,13.10
2018-08-16T03:22:13.058Z,11.83
2018-08-16T03:24:41.540Z,11.83
2018-08-16T03:27:10.039Z,13.43
2018-08-16T03:29:38.521Z,12.00
2018-08-16T03:32:07.084Z,11.77
2018-08-16T03:34:35.800Z,11.73
2018-08-16T03:37:04.409Z,12.60
2018-08-16T03:39:32.920Z,13.07
2018-08-16T03:42:01.544Z,13.80
2018-08-16T03:44:30.025Z,13.10
2018-08-16T03:46:58.533Z,14.33
2018-08-16T03:49:26.998Z,13.73
2018-08-16T03:51:55.444Z,15.10
2018-08-16T03:54:24.052Z,14.43
2018-08-16T03:56:52.580Z,14.23
2018-08-16T03:59:21.136Z,13.00
2018-08-16T04:01:49.630Z,13.13
2018-08-16T04:04:18.164Z,13.53
2018-08-16T04:06:46.675Z,14.77
2018-08-16T04:09:15.195Z,14.57
2018-08-16T04:11:43.705Z,13.13
2018-08-16T04:14:12.245Z,14.07
2018-08-16T04:16:40.778Z,13.03
2018-08-16T04:19:09.323Z,12.93
2018-08-16T04:21:37.860Z,14.80
2018-08-16T04:24:06.679Z,14.00
2018-08-16T04:26:35.300Z,12.20
2018-08-16T04:29:03.889Z,12.43
2018-08-16T04:31:32.369Z,12.57
2018-08-16T04:34:01.401Z,11.80
2018-08-16T04:36:30.459Z,11.17
2018-08-16T04:38:59.957Z,10.70
2018-08-16T04:41:28.830Z,10.93
2018-08-16T04:43:57.289Z,10.87
2018-08-16T04:46:25.837Z,10.17
2018-08-16T04:48:54.658Z,11.30
2018-08-16T04:51:23.135Z,10.70
2018-08-16T04:53:51.740Z,10.70
2018-08-16T04:56:20.957Z,10.50
2018-08-16T04:58:49.523Z,10.40
2018-08-16T05:01:18.045Z,10.20
2018-08-16T05:03:46.580Z,10.03
2018-08-16T05:06:15.112Z,9.80
2018-08-16T05:08:43.608Z,11.13
2018-08-16T05:11:12.132Z,10.10
2018-08-16T05:13:40.606Z,10.27
2018-08-16T05:16:09.091Z,10.30
2018-08-16T05:18:37.555Z,10.20
2018-08-16T05:21:06.257Z,10.73
2018-08-16T05:23:34.740Z,10.17
2018-08-16T05:26:03.231Z,9.90
2018-08-16T05:28:31.739Z,10.43
2018-08-16T05:31:00.273Z,10.47
2018-08-16T05:33:28.987Z,11.07
2018-08-16T05:35:57.534Z,11.23
2018-08-16T05:38:26.078Z,10.60
2018-08-16T05:40:54.556Z,10.97
2018-08-16T05:43:23.120Z,11.87
2018-08-16T05:45:51.647Z,10.50
2018-08-16T05:48:20.192Z,10.20
2018-08-16T05:50:48.897Z,11.77
2018-08-16T05:53:17.486Z,10.90
2018-08-16T05:55:46.010Z,11.57
2018-08-16T05:58:14.571Z,11.43
2018-08-16T06:00:43.099Z,11.67
2018-08-16T06:03:11.934Z,11.27
2018-08-16T06:05:40.437Z,11.13
2018-08-16T06:08:08.935Z,12.17
2018-08-16T06:10:37.510Z,11.47
2018-08-16T06:13:06.677Z,11.53
2018-08-16T06:15:35.297Z,11.97
2018-08-16T06:18:03.834Z,12.37
2018-08-16T06:20:32.415Z,12.50
2018-08-16T06:23:00.978Z,11.80
2018-08-16T06:25:29.463Z,13.27
2018-08-16T06:27:57.969Z,12.03
2018-08-16T06:30:26.576Z,12.50
2018-08-16T06:32:55.096Z,12.63
2018-08-16T06:35:23.610Z,11.97
2018-08-16T06:37:52.117Z,11.53
2018-08-16T06:40:20.693Z,11.20
2018-08-16T06:42:49.232Z,11.03
2018-08-16T06:45:17.788Z,11.40
2018-08-16T06:47:46.352Z,11.23
2018-08-16T06:50:14.973Z,12.20
2018-08-16T06:52:43.619Z,12.33
2018-08-16T06:55:12.122Z,12.03
2018-08-16T06:57:40.654Z,12.00
2018-08-16T07:00:09.591Z,12.57
2018-08-16T07:02:38.064Z,12.43
2018-08-16T07:05:07.032Z,11.63
2018-08-16T07:07:35.862Z,12.53
2018-08-16T07:10:06.276Z,10.70
2018-08-16T07:12:34.828Z,11.40
2018-08-16T07:15:03.350Z,12.27
2018-08-16T07:17:31.820Z,11.13
2018-08-16T07:20:00.369Z,13.00
2018-08-16T07:22:28.838Z,11.90
2018-08-16T07:24:57.413Z,12.47
2018-08-16T07:27:25.946Z,13.83
2018-08-16T07:29:54.508Z,13.50
2018-08-16T07:32:23.012Z,15.07
2018-08-16T07:34:52.455Z,13.87
2018-08-16T07:37:20.984Z,16.27
2018-08-16T07:39:49.494Z,15.33
2018-08-16T07:42:18.263Z,14.87
2018-08-16T07:44:46.864Z,14.60
2018-08-16T07:47:15.440Z,15.93
2018-08-16T07:49:44.092Z,15.30
2018-08-16T07:52:12.566Z,16.33
2018-08-16T07:54:41.058Z,15.93
2018-08-16T07:57:09.612Z,15.90
2018-08-16T07:59:38.165Z,15.57
2018-08-16T08:02:06.978Z,15.70
2018-08-16T08:04:35.564Z,16.00
2018-08-16T08:07:04.351Z,17.53
2018-08-16T08:09:32.998Z,17.13
2018-08-16T08:12:01.388Z,17.43
2018-08-16T08:14:29.974Z,18.27
2018-08-16T08:16:58.593Z,16.60
2018-08-16T08:19:27.121Z,15.77
2018-08-16T08:21:55.703Z,16.73
2018-08-16T08:24:24.315Z,17.27
2018-08-16T08:26:52.917Z,14.43
2018-08-16T08:29:21.476Z,16.53
2018-08-16T08:31:49.947Z,15.60
2018-08-16T08:34:18.469Z,12.63
2018-08-16T08:36:58.365Z,12.33
2018-08-16T08:39:26.928Z,12.87
2018-08-16T08:41:55.439Z,10.93
2018-08-16T08:44:26.786Z,12.07
2018-08-16T08:46:55.454Z,11.33
2018-08-16T08:49:23.994Z,10.00
2018-08-16T08:51:53.569Z,10.63
2018-08-16T08:54:39.323Z,10.20
2018-08-16T08:57:18.994Z,11.17
2018-08-16T08:59:48.498Z,10.13
2018-08-16T09:02:17.057Z,8.87
2018-08-16T09:04:45.610Z,10.03
2018-08-16T09:07:15.334Z,9.20
2018-08-16T09:11:18.964Z,9.20
2018-08-16T09:14:00.956Z,9.47
2018-08-16T09:16:39.120Z,9.87
2018-08-16T09:19:08.555Z,8.47
2018-08-16T09:21:37.262Z,7.43
2018-08-16T09:24:05.960Z,6.73
2018-08-16T09:26:39.689Z,8.40
2018-08-16T09:29:18.633Z,7.00
2018-08-16T09:31:58.452Z,7.07
2018-08-16T09:34:27.382Z,7.00
2018-08-16T09:36:55.847Z,5.80
2018-08-16T09:39:24.477Z,7.33
2018-08-16T09:41:52.964Z,6.10
2018-08-16T09:44:21.438Z,6.33
2018-08-16T09:47:11.652Z,7.17
2018-08-16T09:49:55.685Z,6.87
2018-08-16T09:52:24.220Z,6.50
2018-08-16T09:54:52.723Z,7.50
2018-08-16T09:57:21.243Z,6.63
2018-08-16T09:59:49.842Z,6.90
2018-08-16T10:02:18.526Z,5.67
2018-08-16T10:04:46.971Z,5.40
2018-08-16T10:07:15.488Z,5.57
2018-08-16T10:09:44.135Z,5.40
2018-08-16T10:12:12.711Z,4.63
2018-08-16T10:14:41.210Z,4.90
2018-08-16T10:17:09.742Z,4.87
2018-08-16T10:19:38.261Z,4.53
2018-08-16T10:22:06.764Z,4.43
2018-08-16T10:24:35.277Z,4.13
2018-08-16T10:27:04.037Z,4.60
2018-08-16T10:29:32.532Z,5.03
2018-08-16T10:32:01.000Z,3.70
2018-08-16T10:34:29.515Z,4.20
2018-08-16T10:36:58.064Z,4.60
2018-08-16T10:39:26.560Z,3.80
2018-08-16T10:41:55.164Z,3.70
2018-08-16T10:44:23.799Z,3.30
2018-08-16T10:46:52.238Z,3.63
2018-08-16T10:49:20.760Z,3.98
2018-08-16T10:51:49.289Z,4.60
2018-08-16T10:54:17.784Z,4.90
2018-08-16T10:56:46.279Z,4.50
2018-08-16T10:59:14.780Z,4.53
2018-08-16T11:01:43.242Z,4.40
2018-08-16T11:04:11.759Z,3.83
2018-08-16T11:06:40.206Z,4.23
2018-08-16T11:09:09.960Z,3.80
2018-08-16T11:11:38.980Z,4.40
2018-08-16T11:14:07.562Z,3.83
2018-08-16T11:16:36.799Z,4.43
2018-08-16T11:19:06.547Z,4.90
2018-08-16T11:21:35.087Z,5.00
2018-08-16T11:24:03.596Z,4.30
2018-08-16T11:26:32.123Z,4.20
2018-08-16T11:29:00.651Z,4.30
2018-08-16T11:31:29.259Z,3.70
2018-08-16T11:33:57.766Z,4.57
2018-08-16T11:36:26.276Z,4.17
2018-08-16T11:38:54.787Z,4.53
2018-08-16T11:41:23.323Z,3.70
2018-08-16T11:43:51.963Z,3.80
2018-08-16T11:46:20.607Z,4.17
2018-08-16T11:48:49.126Z,4.27
2018-08-16T11:51:17.592Z,3.87
2018-08-16T11:53:46.066Z,4.77
2018-08-16T11:56:14.627Z,4.93
2018-08-16T11:58:43.231Z,4.53
2018-08-16T12:01:11.671Z,4.10
2018-08-16T12:03:40.135Z,4.60
2018-08-16T12:06:08.709Z,4.47
2018-08-16T12:08:37.162Z,4.40
2018-08-16T12:11:05.779Z,4.40
2018-08-16T12:13:34.286Z,4.57
2018-08-16T12:16:02.803Z,4.00
2018-08-16T12:18:31.322Z,4.00
2018-08-16T12:20:59.899Z,4.40
2018-08-16T12:23:28.422Z,4.20
2018-08-16T12:25:56.985Z,4.10
2018-08-16T12:28:25.516Z,4.00
2018-08-16T12:30:54.013Z,3.80
2018-08-16T12:33:22.727Z,4.67
2018-08-16T12:35:51.394Z,4.30
2018-08-16T12:38:19.888Z,4.07
2018-08-16T12:40:50.197Z,3.70
2018-08-16T12:43:17.049Z,3.83
2018-08-16T12:45:45.575Z,3.70
2018-08-16T12:48:14.169Z,3.60
2018-08-16T12:50:43.226Z,3.40
2018-08-16T12:53:11.736Z,3.90
2018-08-16T12:55:40.232Z,3.50
2018-08-16T12:58:08.769Z,3.60
2018-08-16T13:00:37.369Z,3.50
2018-08-16T13:03:06.319Z,3.83
2018-08-16T13:05:35.050Z,3.50
2018-08-16T13:08:03.704Z,3.83
2018-08-16T13:10:32.315Z,4.00
2018-08-16T13:13:00.827Z,3.23
2018-08-16T13:15:29.402Z,3.17
2018-08-16T13:17:58.015Z,3.53
2018-08-16T13:20:26.543Z,3.70
2018-08-16T13:22:55.063Z,3.40
2018-08-16T13:25:23.622Z,3.50
2018-08-16T13:27:52.451Z,3.33
2018-08-16T13:30:21.557Z,3.80
2018-08-16T13:32:50.557Z,3.43
2018-08-16T13:35:19.250Z,3.50
2018-08-16T13:37:47.769Z,3.87
2018-08-16T13:40:16.459Z,3.73
2018-08-16T13:42:45.032Z,3.27
2018-08-16T13:45:13.614Z,3.40
2018-08-16T13:47:42.039Z,3.53
2018-08-16T13:50:10.575Z,3.40
2018-08-16T13:52:39.119Z,3.50
2018-08-16T13:55:07.677Z,2.90
2018-08-16T13:57:36.144Z,3.10
2018-08-16T14:00:05.459Z,3.30
2018-08-16T14:02:33.944Z,3.60
2018-08-16T14:05:02.426Z,3.50
2018-08-16T14:07:30.942Z,2.77
2018-08-16T14:09:59.559Z,3.40
2018-08-16T14:12:28.079Z,3.00
2018-08-16T14:14:56.587Z,3.20
2018-08-16T14:17:25.147Z,3.20
2018-08-16T14:19:53.640Z,2.65
2018-08-16T14:22:22.361Z,3.40
2018-08-16T14:24:51.059Z,3.17
2018-08-16T14:27:19.570Z,3.20
2018-08-16T14:29:48.148Z,3.03
2018-08-16T14:32:17.297Z,2.93
2018-08-16T14:34:46.127Z,3.37
2018-08-16T14:37:14.826Z,3.00
2018-08-16T14:39:44.899Z,3.27
2018-08-16T14:42:13.994Z,3.10
2018-08-16T14:44:42.823Z,3.37
2018-08-16T14:47:11.327Z,3.07
2018-08-16T14:49:39.890Z,3.27
2018-08-16T14:52:10.348Z,3.13
2018-08-16T14:54:40.079Z,3.40
2018-08-16T14:57:08.870Z,3.20
2018-08-16T14:59:37.535Z,3.43
2018-08-16T15:02:06.115Z,3.00
2018-08-16T15:04:34.558Z,3.03
2018-08-16T15:07:03.408Z,2.80
2018-08-16T15:09:35.139Z,3.17
2018-08-16T15:12:03.803Z,3.60
2018-08-16T15:14:33.404Z,3.00
2018-08-16T15:17:02.383Z,3.00
2018-08-16T15:19:30.892Z,3.63
2018-08-16T15:21:59.423Z,3.30
2018-08-16T15:24:28.154Z,3.10
2018-08-16T15:26:57.326Z,3.40
2018-08-16T15:29:26.438Z,3.33
2018-08-16T15:31:54.887Z,3.00
2018-08-16T15:34:23.394Z,3.37
2018-08-16T15:36:51.866Z,3.10
2018-08-16T15:39:20.362Z,3.03
2018-08-16T15:41:49.108Z,3.30
2018-08-16T15:44:17.699Z,3.13
2018-08-16T15:46:46.202Z,3.50
2018-08-16T15:49:14.667Z,3.57
2018-08-16T15:51:43.251Z,3.10
2018-08-16T15:54:12.970Z,3.00
2018-08-16T15:56:42.497Z,3.13
2018-08-16T15:59:11.283Z,3.40
2018-08-16T16:01:40.071Z,3.57
2018-08-16T16:04:08.584Z,3.23
2018-08-16T16:06:37.096Z,3.47
2018-08-16T16:09:07.973Z,3.17
2018-08-16T16:11:36.836Z,3.37
2018-08-16T16:14:06.023Z,3.10
2018-08-16T16:16:34.503Z,3.77
2018-08-16T16:19:03.103Z,3.67
2018-08-16T16:21:31.575Z,3.50
2018-08-16T16:24:00.084Z,3.70
2018-08-16T16:26:29.132Z,3.53
2018-08-16T16:28:57.574Z,3.73
2018-08-16T16:31:26.047Z,3.60
2018-08-16T16:33:55.453Z,4.27
2018-08-16T16:36:24.014Z,5.07
2018-08-16T16:38:52.990Z,4.40
2018-08-16T16:41:22.118Z,4.50
2018-08-16T16:43:51.176Z,5.20
2018-08-16T16:46:19.841Z,4.53
2018-08-16T16:48:48.378Z,4.67
2018-08-16T16:51:16.855Z,4.80
2018-08-16T16:53:45.335Z,5.00
2018-08-16T16:56:14.061Z,5.33
2018-08-16T16:58:42.549Z,5.23
2018-08-16T17:01:11.030Z,5.57
2018-08-16T17:03:39.483Z,5.13
2018-08-16T17:06:07.934Z,5.00
2018-08-16T17:08:36.554Z,5.17
2018-08-16T17:11:05.704Z,4.77
2018-08-16T17:13:34.480Z,5.60
2018-08-16T17:16:03.064Z,4.93
2018-08-16T17:18:31.669Z,4.90
2018-08-16T17:21:01.151Z,5.27
2018-08-16T17:23:30.083Z,5.40
2018-08-16T17:25:58.892Z,5.00
2018-08-16T17:28:27.489Z,5.10
2018-08-16T17:30:55.999Z,5.20
2018-08-16T17:33:24.910Z,5.63
2018-08-16T17:35:53.431Z,5.20
2018-08-16T17:38:21.971Z,5.60
2018-08-16T17:40:50.434Z,5.50
2018-08-16T17:43:18.960Z,5.07
2018-08-16T17:45:47.466Z,5.40
2018-08-16T17:48:16.214Z,6.33
2018-08-16T17:50:44.719Z,6.17
2018-08-16T17:53:13.235Z,6.30
2018-08-16T17:55:41.755Z,6.50
2018-08-16T17:58:10.612Z,6.90
2018-08-16T18:00:39.097Z,7.73
2018-08-16T18:03:07.606Z,7.40
2018-08-16T18:05:36.092Z,8.10
2018-08-16T18:08:04.604Z,8.10
2018-08-16T18:10:33.089Z,7.83
2018-08-16T18:13:01.573Z,7.60
2018-08-16T18:15:30.075Z,7.90
2018-08-16T18:17:58.495Z,8.20
2018-08-16T18:20:27.000Z,8.77
2018-08-16T18:22:55.548Z,9.13
2018-08-16T18:25:24.091Z,8.27
2018-08-16T18:27:52.625Z,9.37
2018-08-16T18:30:21.142Z,8.80
2018-08-16T18:32:49.697Z,9.13
2018-08-16T18:35:18.287Z,8.37
2018-08-16T18:37:46.748Z,9.57
2018-08-16T18:40:15.255Z,8.43
2018-08-16T18:42:43.720Z,8.73
2018-08-16T18:45:14.086Z,8.60
2018-08-16T18:47:42.708Z,8.63
2018-08-16T18:50:11.235Z,8.00
2018-08-16T18:52:39.715Z,9.10
2018-08-16T18:55:08.451Z,8.47
2018-08-16T18:57:36.888Z,9.43
2018-08-16T19:00:06.855Z,8.57
2018-08-16T19:02:35.378Z,8.37
2018-08-16T19:05:03.948Z,7.67
2018-08-16T19:07:32.450Z,7.73
2018-08-16T19:10:01.340Z,8.33
2018-08-16T19:12:29.840Z,8.70
2018-08-16T19:14:58.317Z,8.50
2018-08-16T19:17:28.847Z,8.23
2018-08-16T19:19:57.349Z,8.33
2018-08-16T19:22:29.066Z,9.30
2018-08-16T19:24:57.518Z,8.93
2018-08-16T19:27:26.102Z,9.03
2018-08-16T19:29:54.729Z,9.50
2018-08-16T19:32:23.237Z,8.97
2018-08-16T19:34:51.713Z,8.83
2018-08-16T19:37:20.262Z,9.70
2018-08-16T19:39:48.745Z,9.23
2018-08-16T19:42:17.250Z,8.87
2018-08-16T19:44:45.749Z,9.67
2018-08-16T19:47:14.321Z,9.17
2018-08-16T19:49:42.797Z,9.93
2018-08-16T19:52:11.335Z,9.03
2018-08-16T19:54:39.859Z,10.57
2018-08-16T19:57:08.443Z,9.80
2018-08-16T19:59:36.931Z,9.67
2018-08-16T20:02:05.548Z,9.27
2018-08-16T20:04:34.009Z,10.27
2018-08-16T20:07:02.533Z,10.30
2018-08-16T20:09:31.052Z,10.17
2018-08-16T20:11:59.525Z,10.77
2018-08-16T20:14:28.054Z,10.00
2018-08-16T20:16:56.561Z,10.23
2018-08-16T20:19:25.229Z,10.43
2018-08-16T20:21:53.818Z,11.27
2018-08-16T20:24:22.342Z,12.10
2018-08-16T20:26:50.822Z,12.43
2018-08-16T20:29:19.263Z,12.23
2018-08-16T20:31:47.820Z,13.70
2018-08-16T20:34:16.345Z,12.47
2018-08-16T20:36:44.869Z,13.90
2018-08-16T20:39:13.395Z,13.77
2018-08-16T20:41:41.932Z,13.07
2018-08-16T20:44:10.427Z,14.53
2018-08-16T20:46:38.950Z,14.13
2018-08-16T20:49:07.580Z,12.07
2018-08-16T20:51:36.079Z,12.67
2018-08-16T20:54:05.125Z,12.17
2018-08-16T20:56:33.593Z,12.00
2018-08-16T20:59:02.087Z,12.03
2018-08-16T21:01:30.587Z,11.67
2018-08-16T21:03:59.024Z,11.60
2018-08-16T21:06:27.538Z,10.97
2018-08-16T21:08:55.991Z,10.90
2018-08-16T21:11:24.498Z,10.77
2018-08-16T21:13:52.948Z,11.77
2018-08-16T21:16:22.010Z,12.23
2018-08-16T21:18:50.644Z,12.10
2018-08-16T21:21:19.461Z,12.30
2018-08-16T21:23:48.056Z,11.60
2018-08-16T21:26:16.747Z,11.33
2018-08-16T21:28:45.623Z,10.87
2018-08-16T21:31:14.249Z,12.00
2018-08-16T21:33:43.254Z,10.97
2018-08-16T21:36:11.789Z,10.73
2018-08-16T21:38:40.242Z,11.13
2018-08-16T21:41:08.872Z,10.67
2018-08-16T21:43:37.335Z,10.60
2018-08-16T21:46:06.005Z,10.57
2018-08-16T21:48:34.495Z,10.60
2018-08-16T21:51:03.230Z,10.47
2018-08-16T21:53:31.661Z,11.07
2018-08-16T21:56:00.099Z,9.77
2018-08-16T21:58:28.608Z,10.07
2018-08-16T22:01:00.059Z,9.27
2018-08-16T22:03:29.070Z,9.47
2018-08-16T22:06:04.511Z,8.77
2018-08-16T22:08:39.395Z,9.07
2018-08-16T22:11:08.167Z,9.60
2018-08-16T22:13:37.069Z,8.53
2018-08-16T22:16:05.682Z,8.70
2018-08-16T22:18:34.230Z,8.23
2018-08-16T22:21:02.731Z,8.43
2018-08-16T22:23:31.494Z,8.20
2018-08-16T22:26:00.145Z,8.23
2018-08-16T22:28:28.657Z,8.80
2018-08-16T22:30:57.584Z,7.77
2018-08-16T22:33:26.275Z,8.03
2018-08-16T22:35:54.775Z,7.90
2018-08-16T22:38:23.385Z,8.20
2018-08-16T22:40:51.831Z,8.10
2018-08-16T22:43:20.436Z,8.30
2018-08-16T22:45:48.950Z,7.30
2018-08-16T22:48:17.714Z,6.83
2018-08-16T22:50:46.246Z,7.87
2018-08-16T22:53:14.831Z,7.73
2018-08-16T22:55:43.327Z,7.63
2018-08-16T22:58:11.943Z,7.87
2018-08-16T23:00:40.600Z,7.83
2018-08-16T23:03:09.142Z,7.57
2018-08-16T23:05:41.135Z,7.43
2018-08-16T23:08:09.717Z,7.33
2018-08-16T23:10:38.486Z,7.77
2018-08-16T23:13:07.228Z,8.57
2018-08-16T23:15:35.816Z,7.60
2018-08-16T23:18:04.376Z,8.43
2018-08-16T23:20:33.054Z,8.40
2018-08-16T23:23:01.919Z,8.07
2018-08-16T23:25:30.580Z,8.00
2018-08-16T23:27:59.178Z,8.53
2018-08-16T23:30:28.054Z,7.87
2018-08-16T23:32:56.766Z,7.77
2018-08-16T23:35:25.573Z,8.67
2018-08-16T23:37:54.095Z,8.90
2018-08-16T23:40:22.829Z,9.40
2018-08-16T23:42:52.470Z,9.57
2018-08-16T23:45:21.217Z,9.33
2018-08-16T23:48:00.868Z,9.10
2018-08-16T23:50:29.395Z,9.03
2018-08-16T23:52:57.903Z,9.50
2018-08-16T23:55:26.735Z,9.20
2018-08-16T23:57:55.463Z,8.77
